»·PEaware :: N46299 L52-KBFL

N46299 :: L52-KBFL

FLIGHT INFORMATION

Flight Status: Arrived
Operator: Privately registered:
United States
More flights under this callsign
Pilot: Victor C. (32144)
Aircraft: CESSNA 172 SKYHAWK
(C172)
More flights by this aircraft type
Origin: L52 Oceano Co
United States
Destination: KBFL Meadows
United States
More flights between these airports :: More routes between these airports
Route:
File this flight plan on PilotEdge
Remarks:
Altitude:
(Current/Filed)
5,500ft
Speed:
(Current/Filed)
120kts
Departed: 14-Dec-20 12:36 PM
Arrived: 14-Dec-20 01:30 PM
Distance/Time
Traveled:
79nm/0:54
Distance/Time
To Go:
Arrived

Flight Plot

Page will automatically refresh every two minutes.

Flight plan parsing failed; only flown route is shown


Map Options




Map Legend


Flown Route
Filed Route
Departure Airport
Arrival Airport
Navaid (VOR, NDB)
Fix

Horizontal Profiles

Position Reports

Time Latitude Longitude Heading Altitude Ground
Speed
14-Dec-20 12:31 35.099439 -120.619517 24 17ft 0kts
14-Dec-20 12:32 35.099439 -120.619517 24 17ft 0kts
14-Dec-20 12:33 35.099439 -120.619517 24 17ft 0kts
14-Dec-20 12:34 35.099439 -120.619517 24 17ft 0kts
14-Dec-20 12:35 35.101833 -120.622857 304 19ft 68kts
14-Dec-20 12:36 35.098264 -120.638912 148 852ft 87kts
14-Dec-20 12:37 35.086984 -120.607372 87 1422ft 108kts
14-Dec-20 12:38 35.087286 -120.571357 75 2114ft 105kts
14-Dec-20 12:40 35.094753 -120.530112 82 2854ft 107kts
14-Dec-20 12:40 35.098743 -120.500234 76 3362ft 107kts
14-Dec-20 12:41 35.108789 -120.465933 71 3983ft 106kts
14-Dec-20 12:42 35.122389 -120.433349 64 4551ft 103kts
14-Dec-20 12:43 35.137203 -120.404139 60 5194ft 97kts
14-Dec-20 12:44 35.151825 -120.373536 81 5531ft 117kts
14-Dec-20 12:45 35.164527 -120.334857 67 5544ft 135kts
14-Dec-20 12:46 35.175581 -120.294836 86 5397ft 124kts
14-Dec-20 12:47 35.178722 -120.254930 86 5391ft 111kts
14-Dec-20 12:48 35.188649 -120.216616 67 5427ft 120kts
14-Dec-20 12:49 35.206436 -120.182260 55 5637ft 110kts
14-Dec-20 12:50 35.232537 -120.152899 54 5556ft 135kts
14-Dec-20 12:51 35.254734 -120.116162 58 5403ft 128kts
14-Dec-20 12:52 35.268122 -120.076686 87 5422ft 125kts
14-Dec-20 12:53 35.273580 -120.034461 88 5433ft 126kts
14-Dec-20 12:54 35.278812 -119.991667 87 5422ft 126kts
14-Dec-20 12:55 35.286588 -119.949945 79 5414ft 126kts
14-Dec-20 12:56 35.297410 -119.908980 77 5421ft 127kts
14-Dec-20 12:57 35.307189 -119.867369 85 5431ft 126kts
14-Dec-20 12:58 35.311470 -119.825458 87 5433ft 122kts
14-Dec-20 12:59 35.314698 -119.784286 87 5420ft 120kts
14-Dec-20 13:00 35.317795 -119.743606 87 5413ft 119kts
14-Dec-20 13:01 35.320924 -119.703113 87 5413ft 119kts
14-Dec-20 13:02 35.324182 -119.662635 87 5415ft 119kts
14-Dec-20 13:03 35.327520 -119.622089 86 5418ft 119kts
14-Dec-20 13:04 35.334960 -119.582198 76 5417ft 120kts
14-Dec-20 13:05 35.343942 -119.542783 76 5418ft 120kts
14-Dec-20 13:06 35.352523 -119.503141 82 5420ft 120kts
14-Dec-20 13:07 35.356703 -119.462702 86 5420ft 120kts
14-Dec-20 13:08 35.360337 -119.421949 86 5420ft 120kts
14-Dec-20 13:09 35.364160 -119.382574 85 4747ft 117kts
14-Dec-20 13:10 35.367920 -119.343568 85 3802ft 112kts
14-Dec-20 13:11 35.373864 -119.309301 80 3187ft 99kts
14-Dec-20 13:12 35.382322 -119.276612 74 2910ft 98kts
14-Dec-20 13:13 35.390355 -119.247511 78 2792ft 87kts
14-Dec-20 13:14 35.396540 -119.219342 76 2671ft 81kts
14-Dec-20 13:15 35.401624 -119.194077 81 2552ft 82kts
14-Dec-20 13:16 35.413333 -119.176552 338 2394ft 82kts
14-Dec-20 13:17 35.413318 -119.198116 202 2510ft 77kts
14-Dec-20 13:18 35.404390 -119.183638 25 2076ft 101kts
14-Dec-20 13:20 35.407512 -119.161476 204 2112ft 75kts
14-Dec-20 13:21 35.384292 -119.164599 172 2160ft 96kts
14-Dec-20 13:22 35.378857 -119.181346 336 2412ft 88kts
14-Dec-20 13:23 35.398823 -119.174219 111 2572ft 101kts
14-Dec-20 13:24 35.407018 -119.141183 73 2054ft 92kts
14-Dec-20 13:25 35.413999 -119.111955 80 1650ft 85kts
14-Dec-20 13:26 35.422678 -119.085612 66 1363ft 78kts
14-Dec-20 13:27 35.412583 -119.065390 144 1221ft 84kts
14-Dec-20 13:28 35.410273 -119.041061 46 986ft 82kts
14-Dec-20 13:29 35.425218 -119.045987 315 723ft 69kts
14-Dec-20 13:30 35.436426 -119.059369 314 499ft 19kts
14-Dec-20 13:31 35.440338 -119.062555 43 496ft 0kts
14-Dec-20 13:32 35.440349 -119.062542 44 496ft 0kts
14-Dec-20 13:33 35.436544 -119.057214 135 494ft 36kts
14-Dec-20 13:34 35.435076 -119.053163 192 489ft 0kts
14-Dec-20 13:34 35.435076 -119.053163 192 489ft 0kts

Navigation Log

Ident Type
Flight plan parsing failed, navigation log unavailable